createdAt,value
2022-11-15T00:00:14.692Z,50.70
2022-11-15T00:03:20.680Z,50.90
2022-11-15T00:06:19.216Z,51.00
2022-11-15T00:09:24.666Z,51.10
2022-11-15T00:12:23.218Z,51.00
2022-11-15T00:15:28.678Z,51.20
2022-11-15T00:18:28.094Z,51.20
2022-11-15T00:21:33.691Z,51.30
2022-11-15T00:24:32.184Z,51.30
2022-11-15T00:27:37.677Z,51.40
2022-11-15T00:30:37.291Z,51.40
2022-11-15T00:33:42.671Z,51.60
2022-11-15T00:36:41.227Z,51.70
2022-11-15T00:39:46.697Z,51.80
2022-11-15T00:42:51.688Z,51.90
2022-11-15T00:45:50.730Z,51.90
2022-11-15T00:48:56.688Z,51.90
2022-11-15T00:51:55.728Z,52.10
2022-11-15T00:55:00.664Z,52.10
2022-11-15T00:57:59.736Z,52.30
2022-11-15T01:01:12.721Z,52.30
2022-11-15T01:04:18.676Z,52.50
2022-11-15T01:07:23.715Z,52.60
2022-11-15T01:10:21.827Z,52.60
2022-11-15T01:13:26.675Z,52.70
2022-11-15T01:16:25.740Z,52.90
2022-11-15T01:19:31.662Z,53.80
2022-11-15T01:22:30.743Z,52.80
2022-11-15T01:25:35.664Z,52.80
2022-11-15T01:28:38.728Z,53.00
2022-11-15T01:31:43.692Z,53.20
2022-11-15T01:34:48.701Z,53.20
2022-11-15T01:38:01.681Z,53.30
2022-11-15T01:41:06.684Z,53.50
2022-11-15T01:44:43.788Z,53.50
2022-11-15T01:47:55.684Z,53.70
2022-11-15T01:50:53.724Z,53.70
2022-11-15T01:54:02.705Z,54.60
2022-11-15T01:57:07.726Z,54.70
2022-11-15T02:00:09.685Z,53.80
2022-11-15T02:03:14.680Z,54.00
2022-11-15T02:06:13.719Z,54.10
2022-11-15T02:09:19.713Z,54.20
2022-11-15T02:12:20.776Z,54.30
2022-11-15T02:15:25.715Z,54.40
2022-11-15T02:18:39.741Z,54.50
2022-11-15T02:21:54.692Z,54.60
2022-11-15T02:24:53.735Z,54.70
2022-11-15T02:28:47.684Z,54.80
2022-11-15T02:32:18.661Z,55.00
2022-11-15T02:35:23.193Z,55.10
2022-11-15T02:38:42.675Z,55.20
2022-11-15T02:42:09.693Z,55.30
2022-11-15T02:45:12.728Z,55.40
2022-11-15T02:48:19.683Z,55.50
2022-11-15T02:51:20.772Z,55.40
2022-11-15T02:54:29.748Z,56.40
2022-11-15T02:57:59.723Z,55.60
2022-11-15T03:01:16.722Z,55.70
2022-11-15T03:04:37.677Z,55.80
2022-11-15T03:08:04.682Z,56.80
2022-11-15T03:11:31.667Z,55.90
2022-11-15T03:14:35.433Z,55.90
2022-11-15T03:17:49.683Z,56.00
2022-11-15T03:20:49.752Z,56.00
2022-11-15T03:24:02.682Z,56.10
2022-11-15T03:27:09.681Z,56.20
2022-11-15T03:30:11.732Z,56.30
2022-11-15T03:33:17.713Z,56.40
2022-11-15T03:36:23.683Z,56.50
2022-11-15T03:39:24.312Z,56.50
2022-11-15T03:42:36.689Z,57.60
2022-11-15T03:46:20.690Z,56.60
2022-11-15T03:49:41.746Z,56.80
2022-11-15T03:52:48.688Z,56.90
2022-11-15T03:55:47.144Z,56.90
2022-11-15T03:58:52.687Z,57.10
2022-11-15T04:01:51.207Z,57.10
2022-11-15T04:04:55.709Z,57.30
2022-11-15T04:07:54.260Z,57.40
2022-11-15T04:11:02.687Z,57.60
2022-11-15T04:14:08.683Z,57.40
2022-11-15T04:17:14.708Z,57.40
2022-11-15T04:20:39.351Z,57.60
2022-11-15T04:24:01.687Z,57.70
2022-11-15T04:27:00.809Z,57.80
2022-11-15T04:30:06.703Z,57.80
2022-11-15T04:33:05.254Z,58.00
2022-11-15T04:36:28.695Z,58.10
2022-11-15T04:39:33.762Z,58.10
2022-11-15T04:42:32.667Z,58.20
2022-11-15T04:45:31.553Z,58.30
2022-11-15T04:48:36.678Z,58.40
2022-11-15T04:51:35.192Z,58.40
2022-11-15T04:54:40.681Z,58.50
2022-11-15T04:57:45.690Z,58.50
2022-11-15T05:00:44.843Z,58.50
2022-11-15T05:04:08.688Z,58.50
2022-11-15T05:07:07.862Z,58.70
2022-11-15T05:10:20.699Z,59.60
2022-11-15T05:13:25.673Z,58.60
2022-11-15T05:16:31.695Z,58.70
2022-11-15T05:19:31.177Z,58.80
2022-11-15T05:22:36.691Z,58.90
2022-11-15T05:25:37.348Z,59.00
2022-11-15T05:28:42.704Z,60.10
2022-11-15T05:31:49.706Z,59.00
2022-11-15T05:34:48.723Z,59.20
2022-11-15T05:37:54.682Z,59.10
2022-11-15T05:40:53.736Z,59.10
2022-11-15T05:43:59.694Z,59.10
2022-11-15T05:47:00.760Z,59.20
2022-11-15T05:50:05.691Z,59.30
2022-11-15T05:53:05.437Z,59.50
2022-11-15T05:56:12.700Z,59.40
2022-11-15T05:59:18.692Z,59.50
2022-11-15T06:02:17.378Z,59.50
2022-11-15T06:05:22.679Z,59.60
2022-11-15T06:08:27.699Z,59.60
2022-11-15T06:11:33.681Z,60.60
2022-11-15T06:14:32.232Z,59.80
2022-11-15T06:17:37.678Z,59.80
2022-11-15T06:20:37.200Z,59.80
2022-11-15T06:23:45.707Z,59.80
2022-11-15T06:26:44.165Z,59.80
2022-11-15T06:29:56.701Z,59.90
2022-11-15T06:33:02.860Z,59.90
2022-11-15T06:36:10.874Z,60.00
2022-11-15T06:39:26.669Z,59.90
2022-11-15T06:42:31.687Z,59.90
2022-11-15T06:45:29.748Z,59.90
2022-11-15T06:48:35.707Z,59.90
2022-11-15T06:51:34.753Z,59.90
2022-11-15T06:54:39.694Z,59.90
2022-11-15T06:57:38.756Z,59.90
2022-11-15T07:00:43.700Z,59.90
2022-11-15T07:03:50.784Z,59.90
2022-11-15T07:06:55.733Z,59.90
2022-11-15T07:09:54.740Z,60.10
2022-11-15T07:13:03.029Z,60.10
2022-11-15T07:16:08.697Z,60.00
2022-11-15T07:19:07.157Z,59.70
2022-11-15T07:22:11.680Z,59.40
2022-11-15T07:25:11.257Z,59.10
2022-11-15T07:28:16.684Z,59.00
2022-11-15T07:31:15.155Z,58.80
2022-11-15T07:34:20.695Z,58.50
2022-11-15T07:37:19.207Z,58.30
2022-11-15T07:40:24.708Z,58.10
2022-11-15T07:43:29.914Z,58.00
2022-11-15T07:46:28.766Z,57.80
2022-11-15T07:49:33.695Z,57.70
2022-11-15T07:52:32.757Z,57.50
2022-11-15T07:55:37.704Z,57.40
2022-11-15T07:58:43.717Z,57.30
2022-11-15T08:01:48.824Z,57.10
2022-11-15T08:04:46.765Z,57.00
2022-11-15T08:07:52.795Z,56.90
2022-11-15T08:10:51.830Z,56.70
2022-11-15T08:13:56.694Z,56.70
2022-11-15T08:17:02.708Z,56.60
2022-11-15T08:20:01.178Z,56.40
2022-11-15T08:23:06.695Z,56.40
2022-11-15T08:26:05.877Z,56.30
2022-11-15T08:29:11.708Z,56.10
2022-11-15T08:32:11.996Z,56.10
2022-11-15T08:35:17.692Z,55.80
2022-11-15T08:38:16.352Z,55.80
2022-11-15T08:41:24.768Z,55.70
2022-11-15T08:44:24.907Z,55.50
2022-11-15T08:47:29.696Z,55.40
2022-11-15T08:50:34.730Z,55.20
2022-11-15T08:53:33.749Z,55.20
2022-11-15T08:56:38.699Z,55.00
2022-11-15T08:59:37.753Z,54.90
2022-11-15T09:02:44.690Z,54.80
2022-11-15T09:05:44.755Z,54.90
2022-11-15T09:08:49.719Z,54.80
2022-11-15T09:11:48.825Z,54.60
2022-11-15T09:14:54.683Z,54.60
2022-11-15T09:18:00.712Z,54.50
2022-11-15T09:21:06.695Z,54.30
2022-11-15T09:24:05.775Z,54.20
2022-11-15T09:27:10.726Z,54.00
2022-11-15T09:30:16.738Z,53.90
2022-11-15T09:33:15.222Z,53.80
2022-11-15T09:36:22.709Z,53.90
2022-11-15T09:39:34.708Z,54.20
2022-11-15T09:43:10.727Z,54.70
2022-11-15T09:46:23.712Z,56.00
2022-11-15T09:49:42.734Z,58.20
2022-11-15T09:52:34.725Z,58.80
2022-11-15T09:55:22.272Z,60.00
2022-11-15T09:58:34.077Z,61.00
2022-11-15T10:01:36.895Z,61.80
2022-11-15T10:04:16.711Z,62.20
2022-11-15T10:07:27.774Z,62.40
2022-11-15T10:10:28.807Z,62.80
2022-11-15T10:13:15.702Z,63.00
2022-11-15T10:16:05.751Z,63.00
2022-11-15T10:19:03.732Z,62.80
2022-11-15T10:22:06.149Z,63.00
2022-11-15T10:24:58.712Z,63.40
2022-11-15T10:27:42.162Z,63.40
2022-11-15T10:30:31.709Z,63.40
2022-11-15T10:33:32.306Z,63.50
2022-11-15T10:36:16.739Z,63.80
2022-11-15T10:39:11.696Z,63.80
2022-11-15T10:42:00.526Z,64.00
2022-11-15T10:44:49.777Z,64.10
2022-11-15T10:47:39.861Z,64.20
2022-11-15T10:50:46.729Z,63.90
2022-11-15T10:53:40.693Z,64.00
2022-11-15T10:56:22.813Z,64.10
2022-11-15T10:59:09.697Z,64.20
2022-11-15T11:01:53.907Z,64.40
2022-11-15T11:04:57.737Z,64.10
2022-11-15T11:07:41.585Z,64.30
2022-11-15T11:10:50.524Z,64.10
2022-11-15T11:13:37.905Z,64.20
2022-11-15T11:16:41.703Z,64.30
2022-11-15T11:19:41.761Z,64.40
2022-11-15T11:22:49.708Z,64.40
2022-11-15T11:25:47.714Z,64.40
2022-11-15T11:28:55.211Z,64.40
2022-11-15T11:31:54.699Z,64.40
2022-11-15T11:34:35.144Z,64.30
2022-11-15T11:37:28.748Z,64.50
2022-11-15T11:40:15.807Z,64.60
2022-11-15T11:43:02.771Z,64.50
2022-11-15T11:45:57.692Z,64.30
2022-11-15T11:48:57.761Z,64.40
2022-11-15T11:51:52.726Z,64.60
2022-11-15T11:54:42.832Z,64.70
2022-11-15T11:57:45.741Z,64.80
2022-11-15T12:00:38.725Z,64.80
2022-11-15T12:03:49.709Z,65.00
2022-11-15T12:06:48.815Z,65.00
2022-11-15T12:09:42.724Z,64.80
2022-11-15T12:13:00.869Z,64.80
2022-11-15T12:16:07.437Z,64.60
2022-11-15T12:18:55.844Z,64.50
2022-11-15T12:21:46.805Z,64.40
2022-11-15T12:24:34.875Z,64.30
2022-11-15T12:27:27.742Z,64.30
2022-11-15T12:30:39.724Z,64.30
2022-11-15T12:33:30.801Z,64.40
2022-11-15T12:36:22.743Z,65.30
2022-11-15T12:39:21.716Z,64.40
2022-11-15T12:42:11.832Z,64.40
2022-11-15T12:44:54.897Z,64.30
2022-11-15T12:47:41.720Z,64.40
2022-11-15T12:50:21.760Z,64.40
2022-11-15T12:53:37.757Z,64.20
2022-11-15T12:56:20.865Z,64.30
2022-11-15T12:59:09.728Z,64.20
2022-11-15T13:01:51.356Z,64.20
2022-11-15T13:04:39.741Z,64.30
2022-11-15T13:07:42.827Z,64.40
2022-11-15T13:10:41.734Z,64.40
2022-11-15T13:13:53.641Z,64.40
2022-11-15T13:16:41.721Z,64.50
2022-11-15T13:19:21.850Z,64.30
2022-11-15T13:22:34.712Z,64.30
2022-11-15T13:25:24.803Z,64.40
2022-11-15T13:28:23.717Z,64.30
2022-11-15T13:31:16.749Z,64.40
2022-11-15T13:34:01.868Z,64.30
2022-11-15T13:36:48.773Z,64.40
2022-11-15T13:39:48.736Z,64.50
2022-11-15T13:42:35.732Z,64.50
2022-11-15T13:45:20.854Z,64.40
2022-11-15T13:48:10.865Z,64.20
2022-11-15T13:50:50.773Z,64.10
2022-11-15T13:53:40.732Z,63.90
2022-11-15T13:56:23.749Z,63.80
2022-11-15T13:59:10.740Z,63.90
2022-11-15T14:01:52.626Z,63.90
2022-11-15T14:04:41.735Z,64.10
2022-11-15T14:07:25.391Z,64.90
2022-11-15T14:10:11.744Z,63.70
2022-11-15T14:12:58.794Z,63.70
2022-11-15T14:15:51.739Z,63.50
2022-11-15T14:19:02.716Z,63.50
2022-11-15T14:22:15.960Z,63.50
2022-11-15T14:25:19.842Z,63.60
2022-11-15T14:28:32.014Z,63.10
2022-11-15T14:31:16.598Z,62.70
2022-11-15T14:34:02.728Z,62.00
2022-11-15T14:36:43.529Z,62.50
2022-11-15T14:39:31.729Z,62.10
2022-11-15T14:42:18.808Z,61.60
2022-11-15T14:44:58.834Z,61.10
2022-11-15T14:47:39.185Z,61.00
2022-11-15T14:50:35.747Z,61.10
2022-11-15T14:53:24.902Z,61.00
2022-11-15T14:56:04.759Z,61.30
2022-11-15T14:58:45.326Z,60.70
2022-11-15T15:01:41.779Z,59.20
2022-11-15T15:04:28.851Z,60.00
2022-11-15T15:07:08.765Z,60.20
2022-11-15T15:10:11.320Z,59.70
2022-11-15T15:12:57.739Z,58.30
2022-11-15T15:15:44.744Z,59.00
2022-11-15T15:18:25.859Z,58.80
2022-11-15T15:21:36.504Z,58.50
2022-11-15T15:24:21.862Z,57.80
2022-11-15T15:27:08.722Z,57.10
2022-11-15T15:29:48.861Z,57.20
2022-11-15T15:32:35.729Z,57.30
2022-11-15T15:35:18.877Z,57.10
2022-11-15T15:38:06.740Z,57.00
2022-11-15T15:40:53.741Z,56.30
2022-11-15T15:43:40.734Z,55.90
2022-11-15T15:46:25.803Z,56.10
2022-11-15T15:49:19.742Z,55.70
2022-11-15T15:52:00.202Z,55.30
2022-11-15T15:54:54.737Z,55.10
2022-11-15T15:57:41.834Z,54.90
2022-11-15T16:00:21.744Z,54.80
2022-11-15T16:03:08.755Z,54.90
2022-11-15T16:05:48.857Z,54.80
2022-11-15T16:08:53.384Z,54.80
2022-11-15T16:11:43.725Z,54.50
2022-11-15T16:14:30.824Z,54.40
2022-11-15T16:17:10.751Z,54.50
2022-11-15T16:19:51.256Z,54.30
2022-11-15T16:22:37.743Z,54.10
2022-11-15T16:25:24.775Z,54.00
2022-11-15T16:28:04.770Z,54.10
2022-11-15T16:30:56.533Z,53.80
2022-11-15T16:33:37.033Z,53.70
2022-11-15T16:36:30.743Z,53.80
2022-11-15T16:39:17.774Z,53.90
2022-11-15T16:42:04.874Z,53.90
2022-11-15T16:44:44.758Z,54.00
2022-11-15T16:47:25.262Z,53.80
2022-11-15T16:50:11.777Z,53.70
2022-11-15T16:52:58.837Z,53.70
2022-11-15T16:55:38.746Z,53.80
2022-11-15T16:58:19.216Z,53.60
2022-11-15T17:01:06.817Z,53.50
2022-11-15T17:03:47.274Z,53.60
2022-11-15T17:06:34.792Z,53.50
2022-11-15T17:09:29.801Z,53.60
2022-11-15T17:12:09.756Z,53.60
2022-11-15T17:14:56.731Z,53.70
2022-11-15T17:17:36.956Z,53.60
2022-11-15T17:20:25.744Z,53.70
2022-11-15T17:23:12.115Z,54.10
2022-11-15T17:26:28.430Z,53.80
2022-11-15T17:29:16.739Z,53.80
2022-11-15T17:32:03.760Z,54.00
2022-11-15T17:34:50.772Z,54.10
2022-11-15T17:37:31.195Z,54.10
2022-11-15T17:40:17.765Z,54.10
2022-11-15T17:43:04.802Z,54.30
2022-11-15T17:45:47.759Z,54.40
2022-11-15T17:48:30.048Z,54.40
2022-11-15T17:51:19.780Z,54.60
2022-11-15T17:54:06.760Z,54.70
2022-11-15T17:56:46.793Z,54.80
2022-11-15T17:59:33.739Z,55.10
2022-11-15T18:02:13.902Z,54.90
2022-11-15T18:05:00.756Z,55.00
2022-11-15T18:07:40.795Z,55.20
2022-11-15T18:10:27.759Z,55.20
2022-11-15T18:13:07.809Z,55.30
2022-11-15T18:16:01.768Z,55.50
2022-11-15T18:18:42.842Z,55.60
2022-11-15T18:21:31.759Z,55.70
2022-11-15T18:24:18.768Z,55.90
2022-11-15T18:26:59.513Z,55.90
2022-11-15T18:29:45.762Z,56.00
2022-11-15T18:32:32.805Z,56.00
2022-11-15T18:35:13.758Z,56.00
2022-11-15T18:37:55.851Z,55.90
2022-11-15T18:40:42.741Z,56.10
2022-11-15T18:43:23.218Z,56.10
2022-11-15T18:46:15.751Z,56.20
2022-11-15T18:48:58.328Z,56.30
2022-11-15T18:51:47.764Z,56.30
2022-11-15T18:54:31.380Z,56.30
2022-11-15T18:57:18.759Z,56.30
2022-11-15T18:59:58.869Z,56.40
2022-11-15T19:02:45.759Z,56.30
2022-11-15T19:05:25.887Z,56.30
2022-11-15T19:08:12.735Z,56.30
2022-11-15T19:10:59.820Z,56.30
2022-11-15T19:13:40.739Z,56.40
2022-11-15T19:16:27.930Z,56.50
2022-11-15T19:19:08.763Z,56.60
2022-11-15T19:21:55.791Z,56.60
2022-11-15T19:24:35.839Z,56.70
2022-11-15T19:27:22.740Z,56.70
2022-11-15T19:30:09.765Z,56.70
2022-11-15T19:32:56.757Z,56.80
2022-11-15T19:35:36.810Z,56.90
2022-11-15T19:38:23.776Z,56.90
2022-11-15T19:41:18.746Z,56.80
2022-11-15T19:44:05.789Z,56.80
2022-11-15T19:46:45.820Z,56.80
2022-11-15T19:49:32.761Z,56.90
2022-11-15T19:52:12.797Z,57.20
2022-11-15T19:54:59.771Z,57.10
2022-11-15T19:57:39.893Z,57.00
2022-11-15T20:00:26.751Z,57.10
2022-11-15T20:03:06.819Z,57.10
2022-11-15T20:05:53.754Z,57.20
2022-11-15T20:08:34.206Z,57.30
2022-11-15T20:11:21.748Z,57.40
2022-11-15T20:14:07.808Z,57.50
2022-11-15T20:16:54.761Z,57.60
2022-11-15T20:19:41.733Z,57.60
2022-11-15T20:22:21.882Z,57.60
2022-11-15T20:25:08.753Z,57.60
2022-11-15T20:27:55.818Z,57.60
2022-11-15T20:30:35.759Z,57.60
2022-11-15T20:33:23.753Z,57.60
2022-11-15T20:36:10.784Z,57.80
2022-11-15T20:38:57.747Z,57.80
2022-11-15T20:41:44.835Z,57.90
2022-11-15T20:44:24.757Z,57.80
2022-11-15T20:47:12.764Z,57.90
2022-11-15T20:50:20.794Z,57.90
2022-11-15T20:53:07.776Z,58.00
2022-11-15T20:55:48.871Z,58.10
2022-11-15T20:58:36.754Z,58.00
2022-11-15T21:01:23.152Z,58.00
2022-11-15T21:04:09.768Z,58.00
2022-11-15T21:06:50.605Z,58.20
2022-11-15T21:09:56.773Z,58.10
2022-11-15T21:12:37.932Z,58.10
2022-11-15T21:15:25.760Z,58.20
2022-11-15T21:18:05.824Z,58.20
2022-11-15T21:20:52.777Z,58.30
2022-11-15T21:23:32.883Z,58.40
2022-11-15T21:26:19.774Z,58.30
2022-11-15T21:28:59.860Z,58.30
2022-11-15T21:31:46.758Z,58.30
2022-11-15T21:34:26.826Z,58.20
2022-11-15T21:37:14.779Z,58.30
2022-11-15T21:39:54.849Z,58.40
2022-11-15T21:42:41.757Z,58.40
2022-11-15T21:45:21.827Z,58.60
2022-11-15T21:48:08.774Z,58.50
2022-11-15T21:50:55.832Z,58.70
2022-11-15T21:53:36.433Z,58.90
2022-11-15T21:56:22.760Z,59.00
2022-11-15T21:59:09.780Z,59.10
2022-11-15T22:02:08.604Z,59.20
2022-11-15T22:04:54.780Z,59.50
2022-11-15T22:07:34.899Z,59.80
2022-11-15T22:10:21.749Z,59.80
2022-11-15T22:13:01.918Z,60.10
2022-11-15T22:15:51.777Z,60.10
2022-11-15T22:18:31.853Z,60.30
2022-11-15T22:21:21.783Z,60.40
2022-11-15T22:24:01.811Z,60.60
2022-11-15T22:26:48.777Z,60.70
2022-11-15T22:29:28.807Z,60.90
2022-11-15T22:32:15.773Z,60.80
2022-11-15T22:34:55.811Z,60.90
2022-11-15T22:37:42.780Z,60.80
2022-11-15T22:40:22.828Z,62.10
2022-11-15T22:43:10.764Z,61.20
2022-11-15T22:45:57.927Z,61.50
2022-11-15T22:48:44.779Z,61.70
2022-11-15T22:51:24.884Z,61.70
2022-11-15T22:54:11.775Z,61.80
2022-11-15T22:56:51.836Z,62.00
2022-11-15T22:59:38.773Z,62.00
2022-11-15T23:02:18.809Z,62.00
2022-11-15T23:05:05.776Z,61.90
2022-11-15T23:07:45.807Z,62.00
2022-11-15T23:10:50.797Z,62.00
2022-11-15T23:13:32.833Z,62.10
2022-11-15T23:16:38.780Z,62.30
2022-11-15T23:19:19.855Z,62.50
2022-11-15T23:22:25.784Z,62.50
2022-11-15T23:25:05.851Z,62.50
2022-11-15T23:27:52.824Z,62.60
2022-11-15T23:30:51.699Z,62.50
2022-11-15T23:33:57.792Z,62.50
2022-11-15T23:36:44.803Z,62.50
2022-11-15T23:39:31.803Z,62.60
2022-11-15T23:42:25.797Z,62.60
2022-11-15T23:45:13.831Z,62.70
2022-11-15T23:47:58.374Z,63.00
2022-11-15T23:50:47.779Z,63.10
2022-11-15T23:53:34.780Z,63.20
2022-11-15T23:56:23.792Z,63.00
2022-11-15T23:59:03.819Z,63.00
